Time;durP1;ratioP1;P1;durP2;ratioP2;P2;SDS_P1;SDS_P2;PMS_P1;PMS_P2;Temp;Humidity;BMP_temperature;BMP_pressure;BME280_temperature;BME280_humidity;BME280_pressure;Samples;Min_cycle;Max_cycle;Signal;HPM_P1;HPM_P2
2023/01/06 00:01:33;;;;;;;48.67;29.92;;;;;;;1.53;100.00;93533.66;5091423;28;20044;-71
2023/01/06 00:04:02;;;;;;;46.63;27.65;;;;;;;1.58;100.00;93536.53;5091599;28;20090;-71
2023/01/06 00:06:30;;;;;;;47.78;28.98;;;;;;;1.53;100.00;93521.00;5091166;28;20036;-70
2023/01/06 00:08:58;;;;;;;48.88;29.95;;;;;;;1.78;100.00;93539.69;5088991;28;20036;-69
2023/01/06 00:11:25;;;;;;;51.28;30.45;;;;;;;1.84;100.00;93549.25;5091268;28;20043;-69
2023/01/06 00:13:52;;;;;;;51.15;28.75;;;;;;;1.87;100.00;93558.28;5091891;28;20040;-69
2023/01/06 00:16:20;;;;;;;58.85;32.83;;;;;;;1.81;100.00;93548.75;5091868;28;20477;-71
2023/01/06 00:18:47;;;;;;;69.10;36.65;;;;;;;1.75;100.00;93545.03;5091581;28;20096;-70
2023/01/06 00:21:15;;;;;;;60.50;32.42;;;;;;;1.95;100.00;93562.63;5091375;28;20484;-70
2023/01/06 00:23:42;;;;;;;57.75;31.92;;;;;;;1.97;100.00;93571.66;5091220;28;20549;-70
2023/01/06 00:26:10;;;;;;;69.10;35.08;;;;;;;2.03;100.00;93572.03;5091266;28;20044;-69
2023/01/06 00:28:37;;;;;;;76.78;40.05;;;;;;;1.89;100.00;93573.34;5091539;28;20044;-70
2023/01/06 00:31:09;;;;;;;69.40;35.95;;;;;;;1.84;100.00;93577.09;5091206;28;20056;-69
2023/01/06 00:33:36;;;;;;;67.35;35.25;;;;;;;1.87;100.00;93586.16;5091193;28;20048;-69
2023/01/06 00:36:04;;;;;;;60.33;33.33;;;;;;;1.92;100.00;93575.56;5090832;28;20048;-70
2023/01/06 00:38:35;;;;;;;49.47;28.83;;;;;;;1.96;100.00;93590.34;5091429;28;20052;-70
2023/01/06 00:41:04;;;;;;;50.00;26.90;;;;;;;1.89;100.00;93589.31;5077849;28;20415;-70
2023/01/06 00:43:31;;;;;;;43.47;25.85;;;;;;;1.97;100.00;93571.66;5090774;28;20048;-69
2023/01/06 00:45:57;;;;;;;51.05;26.00;;;;;;;1.89;100.00;93584.25;5091289;28;20044;-69
2023/01/06 00:48:24;;;;;;;51.38;25.70;;;;;;;1.89;100.00;93578.41;5090955;28;20052;-69
2023/01/06 00:50:51;;;;;;;49.25;26.65;;;;;;;1.98;100.00;93592.72;5090792;28;20542;-69
2023/01/06 00:53:17;;;;;;;44.25;24.85;;;;;;;2.05;100.00;93585.31;5090852;28;20044;-69
2023/01/06 00:55:45;;;;;;;45.28;24.50;;;;;;;2.07;100.00;93611.31;5090652;28;20062;-69
2023/01/06 00:58:12;;;;;;;45.47;25.10;;;;;;;2.10;100.00;93600.88;5091095;28;20097;-69
2023/01/06 01:00:39;;;;;;;40.75;23.50;;;;;;;2.19;100.00;93605.06;5090696;28;20496;-69
2023/01/06 01:03:06;;;;;;;40.42;24.63;;;;;;;2.20;100.00;93603.31;5090810;28;20109;-69
2023/01/06 01:05:32;;;;;;;39.85;22.58;;;;;;;2.24;100.00;93607.16;5076538;28;20085;-69
2023/01/06 01:07:59;;;;;;;33.20;20.25;;;;;;;2.26;100.00;93600.19;5090587;28;20101;-68
2023/01/06 01:10:26;;;;;;;34.03;20.55;;;;;;;2.34;100.00;93612.13;5077251;28;20499;-69
2023/01/06 01:12:54;;;;;;;31.15;19.58;;;;;;;2.36;100.00;93603.41;5090640;28;20098;-69
2023/01/06 01:15:21;;;;;;;30.65;18.17;;;;;;;2.36;100.00;93608.50;5090619;28;20052;-68
2023/01/06 01:17:48;;;;;;;32.25;19.73;;;;;;;2.44;100.00;93599.38;5090436;28;20044;-68
2023/01/06 01:20:14;;;;;;;34.67;19.65;;;;;;;2.43;100.00;93602.81;5090703;28;20105;-69
2023/01/06 01:22:41;;;;;;;29.80;19.40;;;;;;;2.48;100.00;93609.06;5090221;28;20105;-69
2023/01/06 01:25:09;;;;;;;32.35;18.23;;;;;;;2.50;100.00;93603.84;5090230;28;20048;-69
2023/01/06 01:27:35;;;;;;;32.63;19.70;;;;;;;2.49;100.00;93608.09;5090128;28;20173;-69
2023/01/06 01:30:05;;;;;;;34.22;19.05;;;;;;;2.55;100.00;93601.66;5090119;28;20036;-69
2023/01/06 01:32:31;;;;;;;38.13;22.92;;;;;;;2.56;100.00;93597.34;5090164;28;20423;-69
2023/01/06 01:34:58;;;;;;;54.25;28.35;;;;;;;2.51;100.00;93596.06;5090368;28;20439;-69
2023/01/06 01:37:25;;;;;;;54.55;31.48;;;;;;;2.51;100.00;93588.44;5089953;28;20097;-69
2023/01/06 01:39:51;;;;;;;58.95;32.55;;;;;;;2.60;100.00;93604.50;5090024;28;20040;-69
2023/01/06 01:42:20;;;;;;;51.65;32.75;;;;;;;2.65;100.00;93599.00;5090126;28;20055;-69
2023/01/06 01:44:56;;;;;;;51.28;29.98;;;;;;;2.71;100.00;93595.84;5089936;28;20048;-69
2023/01/06 01:47:35;;;;;;;46.97;29.48;;;;;;;2.82;100.00;93596.53;5089831;28;20044;-69
2023/01/06 01:50:22;;;;;;;48.28;31.40;;;;;;;2.77;100.00;93595.25;5089830;28;20115;-69
2023/01/06 01:52:52;;;;;;;50.92;30.23;;;;;;;2.76;100.00;93580.16;5078417;28;20461;-69
2023/01/06 01:55:20;;;;;;;49.40;30.20;;;;;;;2.85;100.00;93583.53;5089659;28;20052;-69
2023/01/06 01:57:50;;;;;;;49.38;29.90;;;;;;;2.90;100.00;93577.06;5089493;28;20078;-69
2023/01/06 02:00:18;;;;;;;48.90;28.17;;;;;;;2.93;100.00;93586.13;5089611;28;20086;-69
2023/01/06 02:02:47;;;;;;;51.40;31.38;;;;;;;2.95;100.00;93579.13;5089661;28;20040;-69
2023/01/06 02:05:17;;;;;;;59.08;32.75;;;;;;;2.95;100.00;93584.19;5089639;28;20458;-69
2023/01/06 02:07:44;;;;;;;54.08;32.58;;;;;;;2.96;100.00;93583.25;5089596;28;20419;-69
2023/01/06 02:10:14;;;;;;;45.97;28.02;;;;;;;2.75;100.00;93570.97;5089647;28;20048;-70
2023/01/06 02:12:41;;;;;;;42.53;25.98;;;;;;;2.80;100.00;93572.13;5089255;28;20052;-69
2023/01/06 02:15:16;;;;;;;38.55;22.08;;;;;;;2.66;100.00;93570.94;5089213;28;20954;-69
2023/01/06 02:18:09;;;;;;;40.42;24.45;;;;;;;2.81;100.00;93572.91;5088965;28;20648;-69
2023/01/06 02:20:48;;;;;;;41.78;24.73;;;;;;;2.88;100.00;93575.63;5089309;28;20058;-69
2023/01/06 02:23:55;;;;;;;39.08;23.10;;;;;;;2.87;100.00;93579.13;5089136;28;20094;-69
2023/01/06 02:26:56;;;;;;;44.55;28.08;;;;;;;2.71;100.00;93562.06;5089142;28;20113;-69
2023/01/06 02:29:50;;;;;;;50.83;29.73;;;;;;;2.79;100.00;93597.63;5088816;28;20048;-69
2023/01/06 02:32:53;;;;;;;46.53;27.33;;;;;;;2.81;100.00;93600.81;5081348;28;20052;-69
2023/01/06 02:35:48;;;;;;;46.58;28.50;;;;;;;2.93;100.00;93616.56;5052795;28;20547;-69
2023/01/06 02:38:28;;;;;;;43.30;27.45;;;;;;;2.96;100.00;93616.25;5089308;28;20094;-70
2023/01/06 02:41:09;;;;;;;44.22;27.17;;;;;;;3.10;100.00;93611.56;5088953;28;20040;-69
2023/01/06 02:43:45;;;;;;;43.10;26.88;;;;;;;3.16;100.00;93619.31;5089166;28;20052;-69
2023/01/06 02:46:24;;;;;;;44.35;27.27;;;;;;;3.21;100.00;93608.72;5089172;28;20116;-69
2023/01/06 02:49:03;;;;;;;42.22;27.27;;;;;;;3.25;100.00;93614.28;5089172;28;20443;-69
2023/01/06 02:51:36;;;;;;;55.78;36.63;;;;;;;3.27;100.00;93614.91;5088661;28;20078;-70
2023/01/06 02:54:14;;;;;;;48.75;30.77;;;;;;;3.20;100.00;93615.53;5088498;28;20048;-69
2023/01/06 02:56:47;;;;;;;42.80;26.00;;;;;;;3.25;100.00;93616.81;5088661;28;20577;-69
2023/01/06 02:59:20;;;;;;;46.15;27.45;;;;;;;3.26;100.00;93603.19;5089108;28;20090;-69
2023/01/06 03:01:51;;;;;;;41.97;25.92;;;;;;;3.25;100.00;93588.91;5088995;28;20086;-69
2023/01/06 03:04:24;;;;;;;46.83;28.75;;;;;;;3.29;100.00;93597.81;5088816;28;20130;-68
2023/01/06 03:06:55;;;;;;;55.22;29.77;;;;;;;3.27;100.00;93590.34;5089050;28;20036;-69
2023/01/06 03:09:27;;;;;;;40.90;24.27;;;;;;;3.35;100.00;93584.50;5089138;28;20105;-69
2023/01/06 03:11:53;;;;;;;45.55;26.80;;;;;;;3.45;100.00;93581.78;5088944;28;20172;-69
2023/01/06 03:14:26;;;;;;;58.55;34.40;;;;;;;3.47;100.00;93575.63;5088770;28;20041;-69
2023/01/06 03:16:53;;;;;;;60.00;34.28;;;;;;;3.29;100.00;93554.66;5088892;28;20044;-69
2023/01/06 03:19:22;;;;;;;47.60;30.35;;;;;;;3.45;100.00;93569.09;5088997;28;20051;-69
2023/01/06 03:21:51;;;;;;;56.83;31.48;;;;;;;3.51;100.00;93570.22;5088739;28;20462;-69
2023/01/06 03:24:18;;;;;;;59.17;32.25;;;;;;;3.52;100.00;93576.91;5088872;28;20336;-69
2023/01/06 03:26:47;;;;;;;65.03;33.58;;;;;;;3.49;100.00;93580.53;5088865;28;20071;-69
2023/01/06 03:29:16;;;;;;;67.78;34.13;;;;;;;3.49;100.00;93580.53;5092665;28;20075;-69
2023/01/06 03:31:52;;;;;;;63.45;35.00;;;;;;;3.47;100.00;93584.97;5092473;28;20060;-68
2023/01/06 03:34:36;;;;;;;53.88;30.67;;;;;;;3.41;100.00;93590.66;5092550;28;20044;-68
2023/01/06 03:37:13;;;;;;;64.35;33.25;;;;;;;3.39;100.00;93598.47;5092457;28;20458;-68
2023/01/06 03:39:51;;;;;;;65.78;34.75;;;;;;;3.40;100.00;93589.91;5092527;28;20526;-69
2023/01/06 03:45:28;;;;;;;66.43;35.58;;;;;;;3.30;100.00;93587.50;5070786;28;20055;-68
2023/01/06 03:48:03;;;;;;;61.13;32.65;;;;;;;3.34;100.00;93582.91;5092556;28;20432;-69
2023/01/06 03:50:37;;;;;;;54.75;30.48;;;;;;;3.34;100.00;93598.91;5092108;28;20097;-69
2023/01/06 03:53:14;;;;;;;52.53;29.30;;;;;;;3.31;100.00;93603.50;5092039;28;20052;-69
2023/01/06 03:55:47;;;;;;;51.70;30.27;;;;;;;3.30;100.00;93596.84;5091817;28;20056;-69
2023/01/06 03:58:15;;;;;;;54.22;30.88;;;;;;;3.29;100.00;93593.50;5091927;28;20066;-69
2023/01/06 04:00:42;;;;;;;53.38;28.23;;;;;;;3.23;100.00;93594.13;5091490;28;20434;-69
2023/01/06 04:03:13;;;;;;;52.50;29.23;;;;;;;3.18;100.00;93586.97;5091924;28;20052;-69
2023/01/06 04:05:41;;;;;;;50.45;30.30;;;;;;;3.34;100.00;93604.00;5091816;28;20043;-69
2023/01/06 04:08:08;;;;;;;55.35;31.40;;;;;;;3.33;100.00;93601.59;5091636;28;20093;-69
2023/01/06 04:10:35;;;;;;;52.50;29.80;;;;;;;3.32;100.00;93605.91;5091679;28;20043;-69
2023/01/06 04:13:00;;;;;;;45.83;25.63;;;;;;;3.30;100.00;93596.84;5091747;28;20051;-69
2023/01/06 04:15:28;;;;;;;37.83;22.77;;;;;;;3.23;100.00;93608.59;5091692;28;20569;-69
2023/01/06 04:17:55;;;;;;;34.53;21.45;;;;;;;3.24;100.00;93607.63;5091794;28;20054;-69
2023/01/06 04:20:24;;;;;;;34.08;20.45;;;;;;;3.22;100.00;93605.25;5091636;28;20424;-69
2023/01/06 04:22:54;;;;;;;31.38;17.92;;;;;;;3.13;100.00;93619.66;5091642;28;20117;-69
2023/01/06 04:25:21;;;;;;;35.72;18.95;;;;;;;2.39;100.00;93508.53;5091275;28;20104;-69
2023/01/06 04:27:48;;;;;;;26.75;16.30;;;;;;;3.12;100.00;93628.22;5091561;28;20097;-69
2023/01/06 04:30:15;;;;;;;31.23;18.13;;;;;;;3.10;100.00;93635.16;5091632;28;20438;-69
2023/01/06 04:32:42;;;;;;;27.73;17.17;;;;;;;3.12;100.00;93637.56;5090775;28;20563;-69
2023/01/06 04:35:09;;;;;;;32.65;17.55;;;;;;;3.13;100.00;93641.69;5091537;28;20056;-69
2023/01/06 04:37:37;;;;;;;28.55;18.38;;;;;;;2.97;100.00;93630.53;5091046;28;20180;-69
2023/01/06 04:40:06;;;;;;;28.75;17.77;;;;;;;3.04;100.00;93658.63;5090961;28;20052;-69
2023/01/06 04:43:03;;;;;;;28.05;18.20;;;;;;;2.93;100.00;93654.63;5091382;28;20048;-69
2023/01/06 04:45:20;;;;;;;31.65;19.08;;;;;;;2.85;100.00;93657.09;5089020;28;20053;-69
2023/01/06 04:47:47;;;;;;;29.48;18.17;;;;;;;2.86;100.00;93651.88;5090392;28;20036;-68
2023/01/06 04:50:14;;;;;;;31.10;18.42;;;;;;;2.90;100.00;93652.38;5090646;28;20090;-68
2023/01/06 04:52:40;;;;;;;24.67;15.90;;;;;;;2.85;100.00;93641.88;5090715;28;20101;-69
2023/01/06 04:55:09;;;;;;;21.35;13.20;;;;;;;2.79;100.00;93645.84;5090880;28;20052;-68
2023/01/06 04:57:36;;;;;;;23.83;14.45;;;;;;;2.76;100.00;93643.59;5077597;28;20093;-68
2023/01/06 05:00:03;;;;;;;26.58;15.25;;;;;;;2.74;100.00;93643.72;5090746;28;20086;-68
2023/01/06 05:02:30;;;;;;;30.63;16.48;;;;;;;2.61;100.00;93620.53;5087544;28;20106;-70
2023/01/06 05:04:56;;;;;;;31.48;18.48;;;;;;;2.66;100.00;93636.09;5090781;28;20083;-71
2023/01/06 05:07:23;;;;;;;34.00;21.65;;;;;;;2.70;100.00;93636.59;5082817;28;20082;-70
2023/01/06 05:09:50;;;;;;;37.47;22.30;;;;;;;2.74;100.00;93645.50;5087808;28;20105;-71
2023/01/06 05:12:18;;;;;;;38.63;23.10;;;;;;;2.77;100.00;93650.25;5089632;28;20040;-69
2023/01/06 05:14:44;;;;;;;40.55;23.30;;;;;;;2.82;100.00;93654.88;5090588;28;20094;-68
2023/01/06 05:17:11;;;;;;;41.08;23.30;;;;;;;2.83;100.00;93648.88;5090560;28;20109;-68
2023/01/06 05:19:40;;;;;;;34.08;20.23;;;;;;;2.88;100.00;93666.97;5090726;28;20089;-71
2023/01/06 05:22:07;;;;;;;46.97;24.05;;;;;;;2.48;100.00;93676.72;5090309;28;20052;-71
2023/01/06 05:24:33;;;;;;;37.25;23.02;;;;;;;2.56;100.00;93681.03;5090700;28;20074;-71
2023/01/06 05:27:00;;;;;;;40.15;23.35;;;;;;;2.65;100.00;93685.22;5090123;28;20646;-71
2023/01/06 05:29:28;;;;;;;45.70;28.20;;;;;;;2.72;100.00;93685.44;5090493;28;20048;-69
2023/01/06 05:31:55;;;;;;;40.00;24.83;;;;;;;2.79;100.00;93692.28;5090249;28;20048;-69
2023/01/06 05:34:22;;;;;;;40.45;23.30;;;;;;;2.84;100.00;93694.38;5089935;28;20055;-69
2023/01/06 05:36:48;;;;;;;37.38;22.60;;;;;;;2.92;100.00;93689.34;5089740;28;20044;-69
2023/01/06 05:39:15;;;;;;;38.13;22.17;;;;;;;2.92;100.00;93680.94;5090057;28;20048;-68
2023/01/06 05:41:42;;;;;;;43.13;22.65;;;;;;;2.91;100.00;93690.28;5076607;28;20040;-69
2023/01/06 05:44:08;;;;;;;39.03;23.35;;;;;;;2.97;100.00;93688.09;5090018;28;20057;-68
2023/01/06 05:46:37;;;;;;;32.60;18.92;;;;;;;2.97;100.00;93690.66;5090295;28;20036;-68
2023/01/06 05:49:03;;;;;;;26.58;16.15;;;;;;;2.97;100.00;93693.19;5089415;28;20048;-68
2023/01/06 05:51:30;;;;;;;30.33;16.13;;;;;;;3.02;100.00;93706.22;5089295;28;20055;-68
2023/01/06 05:53:57;;;;;;;30.52;16.45;;;;;;;3.09;100.00;93701.34;5089779;28;20047;-69
2023/01/06 05:56:24;;;;;;;32.85;17.63;;;;;;;3.14;100.00;93701.69;5090000;28;20109;-68
2023/01/06 05:58:52;;;;;;;27.83;16.55;;;;;;;3.23;100.00;93700.75;5089705;28;20098;-69
2023/01/06 06:01:21;;;;;;;33.33;18.35;;;;;;;3.27;100.00;93702.06;5089794;28;20094;-68
2023/01/06 06:03:49;;;;;;;49.92;29.67;;;;;;;3.20;100.00;93701.84;5089397;28;20629;-69
2023/01/06 06:06:17;;;;;;;51.63;30.05;;;;;;;3.18;100.00;93700.41;5089646;28;20047;-69
2023/01/06 06:08:44;;;;;;;57.25;31.83;;;;;;;3.12;100.00;93701.03;5089444;28;20039;-69
2023/01/06 06:11:14;;;;;;;50.97;30.40;;;;;;;3.12;100.00;93685.78;5089782;28;20040;-69
2023/01/06 06:13:46;;;;;;;71.00;38.22;;;;;;;3.19;100.00;93690.13;5089398;28;20051;-69
2023/01/06 06:16:14;;;;;;;48.53;30.13;;;;;;;3.22;100.00;93699.16;5088837;28;20135;-69
2023/01/06 06:18:42;;;;;;;49.25;28.80;;;;;;;3.27;100.00;93707.13;5088268;28;20047;-69
2023/01/06 06:21:12;;;;;;;48.20;27.08;;;;;;;3.24;100.00;93711.72;5088559;28;20040;-69
2023/01/06 06:23:39;;;;;;;45.97;28.38;;;;;;;3.25;100.00;93710.75;5089257;28;20040;-69
2023/01/06 06:26:06;;;;;;;56.47;32.13;;;;;;;3.23;100.00;93715.22;5089360;28;20040;-69
2023/01/06 06:28:35;;;;;;;46.70;28.00;;;;;;;3.14;100.00;93720.22;5089417;28;20048;-69
2023/01/06 06:31:06;;;;;;;46.42;27.25;;;;;;;3.19;100.00;93702.81;5089341;28;20446;-68
2023/01/06 06:33:32;;;;;;;50.05;27.65;;;;;;;3.01;100.00;93669.09;5089346;28;20088;-69
2023/01/06 06:36:00;;;;;;;45.97;27.75;;;;;;;3.34;100.00;93700.47;5089347;28;20097;-69
2023/01/06 06:38:28;;;;;;;49.92;28.35;;;;;;;3.41;100.00;93710.84;5089053;28;20052;-69
2023/01/06 06:40:55;;;;;;;61.92;33.67;;;;;;;3.35;100.00;93698.75;5089172;28;20044;-69
2023/01/06 06:43:22;;;;;;;49.55;27.75;;;;;;;3.48;100.00;93711.03;5088974;28;20044;-69
2023/01/06 06:45:49;;;;;;;38.53;21.48;;;;;;;3.52;100.00;93709.75;5089206;28;20044;-69
2023/01/06 06:48:16;;;;;;;36.88;21.75;;;;;;;3.47;100.00;93714.50;5088734;28;20048;-69
2023/01/06 06:50:43;;;;;;;38.40;21.98;;;;;;;3.63;100.00;93726.47;5088978;28;20387;-69
2023/01/06 06:53:09;;;;;;;33.95;19.30;;;;;;;3.69;100.00;93715.69;5088827;28;20052;-69
2023/01/06 06:55:38;;;;;;;28.15;16.85;;;;;;;3.76;100.00;93715.88;5088973;28;20055;-68
2023/01/06 06:58:04;;;;;;;28.67;17.05;;;;;;;3.86;100.00;93714.00;5085700;28;20825;-69
2023/01/06 07:00:31;;;;;;;28.55;18.17;;;;;;;3.94;100.00;93715.75;5087047;28;20410;-69
2023/01/06 07:02:58;;;;;;;41.45;25.10;;;;;;;4.00;100.00;93711.78;5090544;28;20048;-69
2023/01/06 07:05:25;;;;;;;34.90;23.23;;;;;;;4.11;100.00;93713.22;5092893;28;20046;-69
2023/01/06 07:07:52;;;;;;;31.23;21.20;;;;;;;4.17;100.00;93720.22;5092937;28;20126;-69
2023/01/06 07:10:19;;;;;;;50.00;29.75;;;;;;;4.31;100.00;93723.09;5092813;28;20044;-69
2023/01/06 07:12:47;;;;;;;50.42;28.13;;;;;;;4.38;100.00;93726.59;5091961;28;20052;-69
2023/01/06 07:15:14;;;;;;;44.90;25.92;;;;;;;4.42;100.00;93730.44;5091994;28;20052;-69
2023/01/06 07:17:41;;;;;;;52.55;28.42;;;;;;;4.50;100.00;93743.13;5091725;28;20048;-69
2023/01/06 07:20:09;;;;;;;46.83;28.02;;;;;;;4.59;100.00;93761.78;5093050;28;20124;-69
2023/01/06 07:22:38;;;;;;;43.15;25.90;;;;;;;4.62;100.00;93771.63;5092751;28;20089;-69
2023/01/06 07:25:06;;;;;;;47.30;30.48;;;;;;;4.62;100.00;93765.72;5092627;28;20047;-68
2023/01/06 07:27:32;;;;;;;53.78;32.50;;;;;;;4.65;100.00;93773.03;5092825;28;20466;-69
2023/01/06 07:30:01;;;;;;;47.28;28.45;;;;;;;4.65;100.00;93739.97;5092271;28;20504;-69
2023/01/06 07:32:27;;;;;;;47.15;30.95;;;;;;;4.79;100.00;93774.97;5092170;28;20075;-69
2023/01/06 07:34:54;;;;;;;43.85;26.15;;;;;;;4.92;100.00;93782.09;5092841;28;20109;-69
2023/01/06 07:37:21;;;;;;;70.40;34.17;;;;;;;4.87;100.00;93775.91;5092083;28;20052;-69
2023/01/06 07:39:47;;;;;;;50.55;28.83;;;;;;;5.04;100.00;93786.84;5092453;28;20040;-69
2023/01/06 07:42:14;;;;;;;51.17;28.80;;;;;;;5.11;100.00;93780.19;5092395;28;20052;-69
2023/01/06 07:44:41;;;;;;;24.52;13.70;;;;;;;5.17;100.00;93796.56;5092254;28;20465;-69
2023/01/06 07:47:09;;;;;;;31.17;16.60;;;;;;;5.19;100.00;93797.22;5092001;28;20105;-69
2023/01/06 07:49:36;;;;;;;17.90;9.63;;;;;;;5.19;100.00;93799.75;5092442;28;20415;-69
2023/01/06 07:52:03;;;;;;;17.48;10.32;;;;;;;5.10;100.00;93803.25;5087720;28;20048;-69
2023/01/06 07:54:29;;;;;;;14.05;8.25;;;;;;;5.06;100.00;93795.16;5091653;28;20101;-68
2023/01/06 07:56:56;;;;;;;14.90;9.38;;;;;;;5.13;100.00;93792.75;5090977;28;20074;-69
2023/01/06 07:59:23;;;;;;;12.10;7.95;;;;;;;5.08;100.00;93790.69;5090952;28;20047;-69
2023/01/06 08:01:49;;;;;;;13.88;8.60;;;;;;;5.11;100.00;93787.81;5090622;28;20036;-69
2023/01/06 08:04:18;;;;;;;13.98;7.53;;;;;;;5.09;100.00;93789.72;5090892;28;20067;-69
2023/01/06 08:06:44;;;;;;;8.38;4.07;;;;;;;5.12;100.00;93793.69;5090618;28;20048;-69
2023/01/06 08:09:11;;;;;;;10.52;5.80;;;;;;;5.12;100.00;93799.59;5090797;28;20044;-69
2023/01/06 08:11:38;;;;;;;16.10;9.23;;;;;;;5.29;100.00;93802.94;5090446;28;20048;-69
2023/01/06 08:14:04;;;;;;;19.25;8.60;;;;;;;5.21;100.00;93790.19;5090113;28;20051;-69
2023/01/06 08:16:31;;;;;;;21.67;11.52;;;;;;;5.53;100.00;93834.41;5090536;28;20447;-69
2023/01/06 08:18:58;;;;;;;24.83;13.93;;;;;;;5.60;100.00;93829.47;5090800;28;20040;-69
2023/01/06 08:21:26;;;;;;;26.25;13.32;;;;;;;5.65;100.00;93829.75;5090111;28;20048;-68
2023/01/06 08:23:53;;;;;;;23.88;12.65;;;;;;;5.81;100.00;93835.75;5090360;28;20101;-69
2023/01/06 08:26:19;;;;;;;18.10;10.75;;;;;;;5.84;100.00;93831.13;5090479;28;20048;-69
2023/01/06 08:28:46;;;;;;;18.27;9.88;;;;;;;5.91;100.00;93831.25;5090297;28;20094;-69
2023/01/06 08:31:15;;;;;;;12.50;7.15;;;;;;;6.00;100.00;93832.03;5090373;28;20044;-69
2023/01/06 08:33:42;;;;;;;14.52;6.40;;;;;;;5.93;100.00;93820.91;5090169;28;20048;-69
2023/01/06 08:36:13;;;;;;;13.88;6.50;;;;;;;5.85;100.00;93806.44;5090060;28;20086;-69
2023/01/06 08:38:41;;;;;;;20.55;9.00;;;;;;;6.11;100.00;93831.69;5090167;28;20111;-69
2023/01/06 08:41:08;;;;;;;43.63;16.73;;;;;;;6.22;100.00;93832.28;5090304;28;20048;-69
2023/01/06 08:43:35;;;;;;;12.10;6.40;;;;;;;6.41;100.00;93846.38;5090294;28;20102;-69
2023/01/06 08:46:04;;;;;;;7.63;4.15;;;;;;;6.53;100.00;93846.81;5090125;28;20071;-69
2023/01/06 08:48:32;;;;;;;12.27;5.97;;;;;;;6.65;100.00;93832.69;5090242;28;20052;-70
2023/01/06 08:51:03;;;;;;;8.60;4.57;;;;;;;6.62;100.00;93830.47;5090244;28;20044;-69
2023/01/06 08:53:31;;;;;;;14.15;5.88;;;;;;;6.62;100.00;93843.22;5089777;28;20052;-69
2023/01/06 08:55:59;;;;;;;24.02;11.57;;;;;;;6.67;100.00;93833.28;5047168;28;1148051;-69
2023/01/06 08:58:27;;;;;;;26.80;14.55;;;;;;;6.60;100.00;93834.13;5091202;28;20048;-69
2023/01/06 09:00:53;;;;;;;10.90;4.70;;;;;;;6.77;100.00;93845.06;5091129;28;20055;-69
2023/01/06 09:03:20;;;;;;;9.85;4.15;;;;;;;6.88;100.00;93838.75;5090864;28;20109;-69
2023/01/06 09:05:52;;;;;;;6.45;2.53;;;;;;;6.91;100.00;93844.28;5090977;28;20052;-69
2023/01/06 09:08:19;;;;;;;6.28;3.10;;;;;;;6.84;100.00;93847.72;5077072;28;20496;-69
2023/01/06 09:10:46;;;;;;;7.25;2.80;;;;;;;6.93;100.00;93847.50;5090557;28;20097;-69
2023/01/06 09:13:14;;;;;;;6.38;2.50;;;;;;;7.03;100.00;93849.03;5090826;28;20048;-69
2023/01/06 09:15:40;;;;;;;7.15;2.72;;;;;;;7.03;100.00;93846.47;5090584;28;20101;-69
2023/01/06 09:18:07;;;;;;;4.55;1.77;;;;;;;6.92;100.00;93842.53;5090955;28;20044;-69
2023/01/06 09:20:35;;;;;;;2.90;2.20;;;;;;;6.90;100.00;93842.72;5090696;28;20052;-69
2023/01/06 09:23:02;;;;;;;3.15;1.60;;;;;;;6.78;100.00;93834.69;5090355;28;20573;-69
2023/01/06 09:25:28;;;;;;;2.47;1.30;;;;;;;6.85;100.00;93821.22;5089846;28;20411;-69
2023/01/06 09:27:55;;;;;;;2.90;1.42;;;;;;;6.90;100.00;93827.38;5090514;28;20097;-70
2023/01/06 09:30:24;;;;;;;3.28;1.42;;;;;;;7.05;100.00;93816.44;5090428;28;20113;-69
2023/01/06 09:32:50;;;;;;;5.53;1.95;;;;;;;7.05;100.00;93809.53;5090558;28;20071;-69
2023/01/06 09:35:17;;;;;;;2.67;1.38;;;;;;;7.20;100.00;93817.28;5089799;28;20487;-69
2023/01/06 09:37:44;;;;;;;4.28;1.50;;;;;;;7.25;100.00;93819.28;5090136;28;20097;-69
2023/01/06 09:40:17;;;;;;;2.03;1.05;;;;;;;7.41;100.00;93818.34;5090416;28;20044;-69
2023/01/06 09:43:02;;;;;;;7.00;3.92;;;;;;;7.41;100.00;93794.56;5090091;28;20040;-70
2023/01/06 09:45:38;;;;;;;3.40;1.73;;;;;;;7.68;100.00;93816.16;5090233;28;20048;-70
2023/01/06 09:48:07;;;;;;;;;;;;;;;7.62;100.00;93819.41;5073135;28;20040;-70
2023/01/06 09:50:38;;;;;;;3.28;1.75;;;;;;;7.68;100.00;93812.81;5069988;28;20366;-70
2023/01/06 09:53:12;;;;;;;4.45;1.70;;;;;;;7.81;100.00;93810.44;5068556;28;20055;-70
2023/01/06 09:55:43;;;;;;;4.07;2.08;;;;;;;7.99;100.00;93807.50;5078912;28;20051;-70
2023/01/06 09:58:13;;;;;;;3.05;1.77;;;;;;;8.01;100.00;93800.44;5089648;28;20044;-70
2023/01/06 10:00:43;;;;;;;3.58;1.60;;;;;;;7.89;100.00;93796.75;5089758;28;20048;-70
2023/01/06 10:03:14;;;;;;;2.28;1.20;;;;;;;7.62;100.00;93786.19;5089929;28;20044;-70
2023/01/06 10:05:51;;;;;;;3.42;1.63;;;;;;;7.80;100.00;93787.56;5089694;28;20044;-70
2023/01/06 10:08:28;;;;;;;4.45;2.13;;;;;;;7.98;100.00;93779.53;5076341;28;20044;-70
2023/01/06 10:11:13;;;;;;;4.43;2.00;;;;;;;8.24;100.00;93785.94;5089700;28;20466;-70
2023/01/06 10:13:55;;;;;;;4.43;1.70;;;;;;;8.59;100.00;93772.50;5089464;28;20093;-70
2023/01/06 10:16:34;;;;;;;4.95;2.20;;;;;;;8.50;100.00;93764.91;5089334;28;20420;-70
2023/01/06 10:19:14;;;;;;;6.95;2.92;;;;;;;8.65;100.00;93752.09;5089487;28;20101;-70
2023/01/06 10:21:46;;;;;;;3.83;1.80;;;;;;;8.95;100.00;93751.13;5089604;28;20052;-70
2023/01/06 10:24:25;;;;;;;3.65;1.63;;;;;;;8.91;98.73;93744.78;5089430;28;20047;-70
2023/01/06 10:26:58;;;;;;;3.25;1.63;;;;;;;8.93;99.48;93748.75;5089564;28;20093;-70
2023/01/06 10:29:30;;;;;;;5.20;2.00;;;;;;;9.19;100.00;93747.38;5089130;28;20054;-70
2023/01/06 10:32:01;;;;;;;4.68;2.65;;;;;;;9.21;100.00;93717.19;5089024;28;20499;-70
2023/01/06 10:34:30;;;;;;;4.30;2.22;;;;;;;9.44;99.13;93743.56;5089161;28;20052;-71
2023/01/06 10:37:03;;;;;;;5.55;2.20;;;;;;;9.43;99.51;93745.34;5089011;28;20125;-70
2023/01/06 10:39:31;;;;;;;7.85;3.28;;;;;;;9.36;99.51;93739.38;5089269;28;20125;-70
2023/01/06 10:44:55;;;;;;;7.43;2.95;;;;;;;9.19;98.92;93751.69;5088937;28;20063;-70
2023/01/06 10:47:30;;;;;;;4.63;2.70;;;;;;;9.09;98.61;93726.41;5089266;28;20044;-71
2023/01/06 10:49:58;;;;;;;7.15;3.75;;;;;;;9.39;99.38;93749.25;5089142;28;20044;-70
2023/01/06 10:52:26;;;;;;;6.32;2.58;;;;;;;9.42;100.00;93733.50;5089115;28;20044;-70
2023/01/06 10:54:57;;;;;;;5.32;2.75;;;;;;;9.62;99.84;93730.22;5088738;28;20056;-70
2023/01/06 10:57:28;;;;;;;6.70;3.25;;;;;;;9.52;96.84;93716.97;5088437;28;20096;-70
2023/01/06 11:00:13;;;;;;;5.32;2.50;;;;;;;9.44;97.02;93725.63;5089051;28;20044;-70
2023/01/06 11:02:44;;;;;;;3.55;1.90;;;;;;;9.37;94.23;93735.84;5089207;28;20093;-70
2023/01/06 11:05:16;;;;;;;3.15;1.45;;;;;;;9.04;90.29;93715.91;5089138;28;20457;-70
2023/01/06 11:07:50;;;;;;;5.13;2.55;;;;;;;8.95;97.37;93713.47;5088650;28;20131;-70
2023/01/06 11:10:27;;;;;;;5.15;1.80;;;;;;;8.95;94.13;93712.72;5089269;28;20044;-69
2023/01/06 11:12:55;;;;;;;4.53;2.10;;;;;;;8.55;93.11;93714.00;5088273;28;20058;-69
2023/01/06 11:15:24;;;;;;;6.95;1.98;;;;;;;8.84;100.00;93715.78;5088994;28;20060;-69
2023/01/06 11:17:53;;;;;;;6.00;2.75;;;;;;;8.95;98.19;93726.28;5088907;28;20526;-69
2023/01/06 11:20:31;;;;;;;6.28;2.92;;;;;;;9.24;96.43;93716.03;5088798;28;20093;-70
2023/01/06 11:23:13;;;;;;;3.53;2.10;;;;;;;9.17;93.82;93705.75;5089084;28;20048;-70
2023/01/06 11:25:40;;;;;;;8.05;1.60;;;;;;;9.41;97.91;93724.22;5089161;28;20048;-71
2023/01/06 11:28:18;;;;;;;3.55;2.10;;;;;;;9.51;93.14;93726.44;5088818;28;20040;-70
2023/01/06 11:30:51;;;;;;;4.45;1.85;;;;;;;9.06;91.89;93701.13;5088673;28;20131;-70
2023/01/06 11:33:22;;;;;;;4.05;1.80;;;;;;;9.22;94.65;93708.53;5088963;28;20419;-70
2023/01/06 11:35:50;;;;;;;3.13;1.20;;;;;;;8.88;91.42;93709.31;5088723;28;20110;-70
2023/01/06 11:38:18;;;;;;;3.80;1.27;;;;;;;8.94;93.25;93711.13;5088694;28;20917;-71
2023/01/06 11:40:47;;;;;;;6.55;2.17;;;;;;;9.09;91.79;93714.38;5088500;28;20044;-70